createdAt,value
2023-01-13T05:03:20.937Z,75.59
2023-01-13T05:07:23.441Z,75.91
2023-01-13T05:11:43.863Z,75.76
2023-01-13T05:16:18.837Z,76.17
2023-01-13T05:20:22.742Z,77.08
2023-01-13T05:24:42.733Z,77.29
2023-01-13T05:28:45.211Z,76.80
2023-01-13T05:32:47.721Z,77.05
2023-01-13T05:36:51.531Z,76.63
2023-01-13T05:41:11.258Z,77.20
2023-01-13T05:45:13.817Z,77.88
2023-01-13T05:49:16.306Z,78.64
2023-01-13T05:53:21.159Z,79.88
2023-01-13T05:57:23.632Z,80.97
2023-01-13T06:01:26.165Z,81.93
2023-01-13T06:05:28.833Z,82.00
2023-01-13T06:09:33.600Z,81.74
2023-01-13T06:13:36.131Z,80.83
2023-01-13T06:17:38.720Z,79.58
2023-01-13T06:21:41.609Z,77.34
2023-01-13T06:25:52.883Z,76.49
2023-01-13T06:29:56.531Z,76.36
2023-01-13T06:34:03.604Z,74.81
2023-01-13T06:38:11.231Z,75.17
2023-01-13T06:42:33.937Z,75.30
2023-01-13T06:46:36.644Z,75.14
2023-01-13T06:50:39.292Z,75.68
2023-01-13T06:54:41.753Z,75.85
2023-01-13T06:58:45.540Z,76.20
2023-01-13T07:02:48.389Z,76.37
2023-01-13T07:06:50.903Z,76.32
2023-01-13T07:10:54.173Z,76.32
2023-01-13T07:15:15.723Z,76.45
2023-01-13T07:19:23.198Z,75.73
2023-01-13T07:23:26.590Z,74.48
2023-01-13T07:27:29.107Z,73.52
2023-01-13T07:31:32.931Z,73.31
2023-01-13T07:35:35.448Z,73.13
2023-01-13T07:39:37.915Z,73.65
2023-01-13T07:43:40.381Z,73.67
2023-01-13T07:47:44.199Z,73.29
2023-01-13T07:51:46.701Z,73.65
2023-01-13T07:55:49.634Z,73.96
2023-01-13T07:59:52.146Z,74.17
2023-01-13T08:03:56.066Z,73.65
2023-01-13T08:07:58.577Z,74.14
2023-01-13T08:12:15.042Z,74.36
2023-01-13T08:16:17.676Z,73.69
2023-01-13T08:20:21.680Z,73.45
2023-01-13T08:24:24.203Z,73.17
2023-01-13T08:28:26.912Z,73.01
2023-01-13T08:32:29.481Z,73.12
2023-01-13T08:36:33.299Z,72.89
2023-01-13T08:40:36.440Z,72.82
2023-01-13T08:44:38.916Z,73.03
2023-01-13T08:48:41.366Z,72.42
2023-01-13T08:52:45.191Z,72.71
2023-01-13T08:56:48.097Z,72.35
2023-01-13T09:00:50.666Z,71.87
2023-01-13T09:04:53.419Z,71.13
2023-01-13T09:08:57.275Z,70.30
2023-01-13T09:13:14.636Z,69.80
2023-01-13T09:17:17.266Z,68.46
2023-01-13T09:21:21.040Z,68.18
2023-01-13T09:25:24.865Z,68.21
2023-01-13T09:29:27.503Z,66.73
2023-01-13T09:33:47.413Z,67.39
2023-01-13T09:37:49.872Z,66.91
2023-01-13T09:42:14.563Z,65.47
2023-01-13T09:46:53.601Z,65.34
2023-01-13T09:51:04.147Z,64.24
2023-01-13T09:55:12.792Z,63.80
2023-01-13T09:59:17.059Z,64.25
2023-01-13T10:03:23.240Z,63.62
2023-01-13T10:07:30.458Z,64.13
2023-01-13T10:11:54.086Z,64.36
2023-01-13T10:16:06.697Z,64.31
2023-01-13T10:20:19.422Z,61.92
2023-01-13T10:24:34.611Z,63.27
2023-01-13T10:28:37.123Z,63.58
2023-01-13T10:32:43.877Z,63.53
2023-01-13T10:36:58.831Z,64.08
2023-01-13T10:41:03.231Z,63.89
2023-01-13T10:45:07.936Z,64.91
2023-01-13T10:49:28.267Z,64.39
2023-01-13T10:53:31.051Z,64.49
2023-01-13T10:57:37.503Z,64.49
2023-01-13T11:01:43.143Z,62.65
2023-01-13T11:05:54.823Z,62.72
2023-01-13T11:10:12.464Z,63.02
2023-01-13T11:14:40.396Z,62.06
2023-01-13T11:19:02.253Z,61.62
2023-01-13T11:23:15.422Z,61.96
2023-01-13T11:27:23.479Z,62.02
2023-01-13T11:31:31.576Z,61.23
2023-01-13T11:35:38.825Z,61.45
2023-01-13T11:39:50.236Z,59.72
2023-01-13T11:43:56.428Z,59.22
2023-01-13T11:48:02.186Z,58.59
2023-01-13T11:52:10.211Z,57.93
2023-01-13T11:56:29.219Z,58.83
2023-01-13T12:00:41.831Z,60.31
2023-01-13T12:04:55.263Z,60.24
2023-01-13T12:09:23.747Z,61.04
2023-01-13T12:13:36.006Z,63.12
2023-01-13T12:17:47.488Z,68.57
2023-01-13T12:22:00.126Z,70.18
2023-01-13T12:26:07.728Z,70.43
2023-01-13T12:30:24.670Z,69.52
2023-01-13T12:34:37.422Z,69.38
2023-01-13T12:38:47.277Z,68.67
2023-01-13T12:43:14.095Z,67.72
2023-01-13T12:47:36.826Z,67.78
2023-01-13T12:52:13.912Z,67.71
2023-01-13T12:56:40.087Z,68.28
2023-01-13T13:01:13.335Z,67.75
2023-01-13T13:05:42.577Z,67.02
2023-01-13T13:09:50.289Z,67.24
2023-01-13T13:13:52.829Z,66.74
2023-01-13T13:18:24.269Z,64.75
2023-01-13T13:22:51.135Z,64.61
2023-01-13T13:26:53.799Z,62.67
2023-01-13T13:31:14.298Z,63.75
2023-01-13T13:35:34.752Z,63.54
2023-01-13T13:40:00.703Z,63.32
2023-01-13T13:44:26.644Z,64.20
2023-01-13T13:48:30.893Z,65.05
2023-01-13T13:52:39.133Z,66.45
2023-01-13T13:56:46.051Z,66.43
2023-01-13T14:00:49.571Z,66.36
2023-01-13T14:04:52.000Z,66.51
2023-01-13T14:08:54.507Z,66.73
2023-01-13T14:13:00.596Z,64.96
2023-01-13T14:17:05.620Z,64.20
2023-01-13T14:21:20.676Z,64.81
2023-01-13T14:25:31.923Z,66.07
2023-01-13T14:29:36.171Z,66.04
2023-01-13T14:33:42.273Z,66.80
2023-01-13T14:37:48.895Z,67.70
2023-01-13T14:41:52.969Z,67.72
2023-01-13T14:45:59.505Z,68.78
2023-01-13T14:50:05.065Z,69.30
2023-01-13T14:54:42.883Z,68.75
2023-01-13T14:58:45.585Z,72.61
2023-01-13T15:03:00.474Z,76.21
2023-01-13T15:07:03.854Z,78.43
2023-01-13T15:11:17.422Z,78.60
2023-01-13T15:15:23.966Z,78.57
2023-01-13T15:19:27.911Z,78.87
2023-01-13T15:23:30.410Z,78.17
2023-01-13T15:27:32.934Z,78.77
2023-01-13T15:31:35.434Z,78.60
2023-01-13T15:35:42.196Z,78.04
2023-01-13T15:39:44.753Z,77.64
2023-01-13T15:44:04.618Z,77.39
2023-01-13T15:48:07.246Z,76.29
2023-01-13T15:52:19.971Z,76.65
2023-01-13T15:56:25.412Z,76.19
2023-01-13T16:00:28.362Z,76.08
2023-01-13T16:04:30.881Z,75.88
2023-01-13T16:08:34.897Z,75.37
2023-01-13T16:12:38.019Z,74.09
2023-01-13T16:16:40.719Z,72.69
2023-01-13T16:20:43.707Z,72.73
2023-01-13T16:24:48.238Z,72.92
2023-01-13T16:28:52.363Z,73.89
2023-01-13T16:32:55.186Z,75.08
2023-01-13T16:36:57.682Z,75.45
2023-01-13T16:41:01.631Z,75.62
2023-01-13T16:45:08.361Z,75.43
2023-01-13T16:49:12.696Z,75.70
2023-01-13T16:53:15.223Z,76.04
2023-01-13T16:57:19.143Z,75.98
2023-01-13T17:01:25.390Z,75.94
2023-01-13T17:05:28.010Z,75.91
2023-01-13T17:09:31.206Z,75.48
2023-01-13T17:13:35.028Z,74.96
2023-01-13T17:17:37.629Z,74.97
2023-01-13T17:21:40.115Z,75.07
2023-01-13T17:25:43.308Z,75.01
2023-01-13T17:29:47.460Z,75.22
2023-01-13T17:33:49.985Z,74.86
2023-01-13T17:37:52.587Z,74.56
2023-01-13T17:41:55.875Z,74.80
2023-01-13T17:45:59.794Z,74.86
2023-01-13T17:50:03.996Z,75.02
2023-01-13T17:54:06.779Z,74.51
2023-01-13T17:58:09.244Z,74.29
2023-01-13T18:02:14.336Z,73.87
2023-01-13T18:06:19.086Z,73.76
2023-01-13T18:10:21.570Z,73.25
2023-01-13T18:14:24.460Z,72.56
2023-01-13T18:18:28.289Z,72.40
2023-01-13T18:22:48.265Z,71.69
2023-01-13T18:27:08.588Z,71.57
2023-01-13T18:31:11.144Z,71.19
2023-01-13T18:35:15.090Z,70.91
2023-01-13T18:39:17.931Z,71.26
2023-01-13T18:43:20.488Z,70.55
2023-01-13T18:47:23.037Z,71.17
2023-01-13T18:51:26.851Z,71.26
2023-01-13T18:55:29.424Z,71.88
2023-01-13T18:59:33.097Z,72.31
2023-01-13T19:03:35.600Z,72.56
2023-01-13T19:07:39.631Z,72.26
2023-01-13T19:11:42.381Z,72.20
2023-01-13T19:15:44.938Z,72.06
2023-01-13T19:19:50.768Z,72.21
2023-01-13T19:23:55.496Z,71.74
2023-01-13T19:27:57.997Z,71.06
2023-01-13T19:32:00.518Z,70.94
2023-01-13T19:36:04.626Z,70.77
2023-01-13T19:40:10.602Z,70.49
2023-01-13T19:44:30.943Z,69.82
2023-01-13T19:48:33.648Z,69.55
2023-01-13T19:52:36.205Z,70.30
2023-01-13T19:56:40.058Z,70.84
2023-01-13T20:00:47.017Z,71.67
2023-01-13T20:04:49.595Z,72.12
2023-01-13T20:08:52.100Z,71.95
2023-01-13T20:12:55.903Z,71.98
2023-01-13T20:16:58.506Z,71.09
2023-01-13T20:21:03.872Z,71.56
2023-01-13T20:25:07.309Z,71.22
2023-01-13T20:29:11.052Z,70.80
2023-01-13T20:33:13.663Z,70.58
2023-01-13T20:37:16.320Z,70.50
2023-01-13T20:41:48.096Z,70.75
2023-01-13T20:45:51.896Z,71.23
2023-01-13T20:49:54.758Z,73.34
2023-01-13T20:53:57.695Z,73.89
2023-01-13T20:58:00.180Z,74.28
2023-01-13T21:02:05.157Z,74.80
2023-01-13T21:06:08.137Z,75.57
2023-01-13T21:10:12.188Z,75.80
2023-01-13T21:14:34.178Z,75.76
2023-01-13T21:18:55.786Z,74.76
2023-01-13T21:22:58.342Z,74.63
2023-01-13T21:27:00.856Z,73.93
2023-01-13T21:31:05.170Z,73.29
2023-01-13T21:35:10.273Z,73.56
2023-01-13T21:39:15.330Z,73.84
2023-01-13T21:43:35.622Z,73.50
2023-01-13T21:47:50.267Z,73.44
2023-01-13T21:51:54.073Z,72.88
2023-01-13T21:55:56.666Z,72.54
2023-01-13T21:59:59.206Z,71.28
